Luliang Air Base

CN-0041 · Yunnan, China

METAR history CN-0041 · Luliang Air Base

Below you see METARs of the last few days. Select a year to browse through older METARs, from the year 2007 onwards.

June 24, 2024

Time Code Weather Temp. Visibility Ceiling Wind METAR/SPECI
15:00
V
19 °C 10 km+ 3,600 ft 040° 040° 13 kt METAR ZPPP 240700Z 04007MPS 9999 SCT023 OVC036 19/13 Q1019 NOSIG
14:00
V
18 °C 10 km+ 3,600 ft 040° 040° 15 kt METAR ZPPP 240600Z 04008MPS 9999 SCT023 OVC036 18/12 Q1020 NOSIG
13:00
V
18 °C 10 km+ 3,600 ft 040° 040° 15 kt METAR ZPPP 240500Z 04008MPS 9999 SCT023 OVC036 18/13 Q1020 NOSIG
12:00
V
16 °C 10 km+ 3,600 ft 050° 050° 13 kt METAR ZPPP 240400Z 05007MPS 9999 SCT023 OVC036 16/12 Q1021 NOSIG
11:00
V
16 °C 10 km+ 3,600 ft 050° 050° 11 kt METAR ZPPP 240300Z 05006MPS 9999 SCT023 OVC036 16/13 Q1021 NOSIG
10:00
V
15 °C 10 km+ 3,600 ft 050° 050° 11 kt METAR ZPPP 240200Z 05006MPS 9999 SCT023 OVC036 15/13 Q1021 NOSIG
09:00
V
15 °C 10 km+ 3,600 ft 060° 060° 9 kt METAR ZPPP 240100Z 06005MPS 9999 SCT023 BKN036 15/12 Q1020 NOSIG
08:00
V
15 °C 10 km+ 3,600 ft 050° 050° 11 kt METAR ZPPP 240000Z 05006MPS 9999 SCT023 BKN036 15/12 Q1020 NOSIG
07:00
V
14 °C 10 km+ 3,300 ft 020° 020° 9 kt METAR ZPPP 232300Z 02005MPS 9999 -SHRA SCT020 BKN033 14/13 Q1019 NOSIG
06:00
V
14 °C 10 km+ - 040° 040° 9 kt METAR ZPPP 232200Z 04005MPS 9999 FEW005 SCT016 14/14 Q1019 NOSIG
05:00
V
15 °C 10 km+ 4,000 ft 050° 050° 9 kt METAR ZPPP 232100Z 05005MPS 9999 FEW005 SCT016 OVC040 15/14 Q1019 NOSIG
04:00
V
16 °C 10 km+ 4,000 ft 040° 040° 9 kt METAR ZPPP 232000Z 04005MPS 9999 -SHRA FEW005 SCT016 OVC040 16/15 Q1018 NOSIG
03:00
V
16 °C 10 km+ 4,000 ft 040° 040° 9 kt METAR ZPPP 231900Z 04005MPS 9999 FEW005 SCT016 OVC040 16/15 Q1018 NOSIG
02:00
V
17 °C 8 km 4,000 ft 040° 040° 11 kt METAR ZPPP 231800Z 04006MPS 8000 SCT003 SCT016 OVC040 17/16 Q1018 NOSIG
01:00
V
18 °C 8 km 4,600 ft 360° 360° 7 kt METAR ZPPP 231700Z 36004MPS 8000 -SHRA FEW003 SCT020 BKN046 18/17 Q1018 NOSIG
00:00
V
18 °C 10 km+ 4,000 ft 030° 030° 7 kt METAR ZPPP 231600Z 03004MPS 9999 SCT020 BKN040 18/17 Q1018 NOSIG

June 23, 2024

Time Code Weather Temp. Visibility Ceiling Wind METAR/SPECI
23:00
V
19 °C 10 km+ 4,000 ft 030° 030° 5 kt METAR ZPPP 231500Z 03003MPS 9999 SCT020 BKN040 19/17 Q1019 NOSIG
22:00
V
18 °C 10 km+ - 030° 030° 7 kt METAR ZPPP 231400Z 03004MPS 9999 FEW003 SCT020 18/18 Q1018 NOSIG
21:00
V
19 °C 10 km+ - 040° 040° 7 kt METAR ZPPP 231300Z 04004MPS 9999 SCT010 19/18 Q1017 NOSIG
20:00
V
19 °C 10 km+ - 030° 030° 7 kt METAR ZPPP 231200Z 03004MPS 9999 FEW020 19/18 Q1016 NOSIG
19:00
V
20 °C 10 km+ - 010° 010° 9 kt METAR ZPPP 231100Z 01005MPS 9999 FEW026TCU SCT026 20/18 Q1015 NOSIG
18:00
V
21 °C 10 km+ - 180° 180° 3 kt METAR ZPPP 231000Z 18002MPS 140V210 9999 FEW026TCU SCT026 21/17 Q1014 NOSIG
17:00
V
22 °C 10 km+ - 170° 170° 11 kt METAR ZPPP 230900Z 17006MPS 140V200 9999 -SHRA FEW026TCU SCT026 22/17 Q1015 RETS NOSIG
16:00
V
23 °C 10 km+ - 130° 130° 7 kt METAR ZPPP 230800Z 13004MPS 090V160 9999 TS FEW026CB SCT026 23/17 Q1016 BECMG TL0840 NSW
15:00
V
24 °C 10 km+ - 010° 010° 11 kt METAR ZPPP 230700Z 01006MPS 9999 FEW026CB SCT026 24/17 Q1016 NOSIG
14:00
V
26 °C 10 km+ - 240° 240° 11 kt METAR ZPPP 230600Z 24006MPS 200V290 9999 FEW026TCU SCT026 26/16 Q1016 BECMG TL0700 TS
13:00
V
24 °C 10 km+ - 210° 210° 5 kt METAR ZPPP 230500Z 21003MPS 150V280 9999 SCT026 24/16 Q1017 NOSIG
12:00
V
25 °C 10 km+ - 240° 240° 5 kt METAR ZPPP 230400Z 24003MPS 190V300 9999 SCT026 25/16 Q1018 NOSIG
11:00
V
22 °C 10 km+ 4,000 ft 220° 220° 5 kt METAR ZPPP 230300Z 22003MPS 180V270 9999 SCT023 BKN040 22/16 Q1019 NOSIG
10:00
V
21 °C 10 km+ 4,000 ft 220° 220° 9 kt METAR ZPPP 230200Z 22005MPS 180V250 9999 SCT020 BKN040 21/16 Q1019 NOSIG
09:00
V
20 °C 10 km+ 4,000 ft 210° 210° 11 kt METAR ZPPP 230100Z 21006MPS 9999 SCT020 BKN040 20/16 Q1019 NOSIG
08:00
V
19 °C 10 km+ 4,300 ft 200° 200° 13 kt METAR ZPPP 230000Z 20007MPS 9999 SCT023 BKN043 19/15 Q1019 NOSIG
07:00
V
18 °C 10 km+ 4,300 ft 220° 220° 11 kt METAR ZPPP 222300Z 22006MPS 9999 SCT023 BKN043 18/15 Q1018 NOSIG
06:00
V
19 °C 10 km+ 4,600 ft 210° 210° 11 kt METAR ZPPP 222200Z 21006MPS 9999 SCT023 BKN046 19/16 Q1018 NOSIG
05:00
V
19 °C 10 km+ - 210° 210° 7 kt METAR ZPPP 222100Z 21004MPS 9999 SCT020 SCT040 19/17 Q1018 NOSIG
04:00
V
19 °C 10 km+ - Var Var 1 kt METAR ZPPP 222000Z VRB01MPS 9999 SCT020 SCT040 19/18 Q1018 NOSIG
03:00
V
18 °C 10 km+ - 350° 350° 3 kt METAR ZPPP 221900Z 35002MPS 9999 SCT003 SCT023 18/18 Q1018 NOSIG
02:00
V
18 °C 10 km+ - 090° 090° 3 kt METAR ZPPP 221800Z 09002MPS 030V130 9999 SCT023 18/17 Q1018 NOSIG
01:00
V
19 °C 10 km+ - 040° 040° 3 kt METAR ZPPP 221700Z 04002MPS 9999 SCT023 19/17 Q1018 NOSIG
00:00
V
20 °C 10 km+ - 360° 360° 0 kt METAR ZPPP 221600Z 00000MPS 9999 SCT023 20/17 Q1018 NOSIG

June 22, 2024

Time Code Weather Temp. Visibility Ceiling Wind METAR/SPECI
23:00
V
21 °C 10 km+ - Var Var 1 kt METAR ZPPP 221500Z VRB01MPS 9999 SCT023 21/16 Q1019 NOSIG
22:00
V
20 °C 10 km+ - 220° 220° 3 kt METAR ZPPP 221400Z 22002MPS 9999 SCT023 20/17 Q1018 NOSIG
21:00
V
21 °C 10 km+ - 200° 200° 7 kt METAR ZPPP 221300Z 20004MPS 9999 SCT023 21/15 Q1017 NOSIG
20:00
V
22 °C 10 km+ - 200° 200° 11 kt METAR ZPPP 221200Z 20006MPS 9999 SCT023 22/18 Q1016 NOSIG
19:00
V
23 °C 10 km+ - 220° 220° 11 kt METAR ZPPP 221100Z 22006MPS 9999 FEW023TCU SCT023 23/17 Q1015 NOSIG
18:00
V
23 °C 10 km+ - 210° 210° 11 kt METAR ZPPP 221000Z 21006MPS 9999 FEW023TCU SCT023 SCT043 23/17 Q1014 NOSIG
17:00
V
23 °C 10 km+ 4,300 ft 220° 220° 11 kt METAR ZPPP 220900Z 22006MPS 9999 FEW023CB SCT023 BKN043 23/17 Q1015 NOSIG
16:00
V
25 °C 10 km+ 4,300 ft 210° 210° 17 kt METAR ZPPP 220800Z 21009MPS 9999 FEW023CB SCT023 BKN043 25/17 Q1015 NOSIG
15:00
V
25 °C 10 km+ 4,300 ft 260° 260° 13 kt METAR ZPPP 220700Z 26007MPS 9999 FEW023CB SCT023 BKN043 25/17 Q1015 NOSIG
14:00
V
26 °C 10 km+ - 200° 200° 9 kt METAR ZPPP 220600Z 20005MPS 160V220 9999 FEW023TCU SCT023 26/17 Q1015 NOSIG
Report a change